<?xml version='1.0' encoding='UTF-8'?>
<gpx xmlns="http://www.topografix.com/GPX/1/1" creator="www.balnam.be" version="1.1" xmlns:xsi="http://www.w3.org/2001/XMLSchema-instance" xsi:schemaLocation="http://www.topografix.com/GPX/1/1 http://www.topografix.com/GPX/1/1/gpx.xsd">
<trk>
<name>lbuma10</name>
<cmt>d</cmt>
<desc>Marneffe Chemin n°10 Rue Sainte-Barbe / Rue du Buck / Rue du Prale</desc>
<link href="https://chemins.be/marneffe/chemin/10"/><trkseg>
<trkpt lat="50.599813" lon="5.146543"><time>2026-05-02T17:07:56Z</time></trkpt>
<trkpt lat="50.595941" lon="5.145666"><time>2026-05-02T17:17:56Z</time></trkpt>
<trkpt lat="50.594807" lon="5.145992"><time>2026-05-02T17:27:56Z</time></trkpt>
<trkpt lat="50.592631" lon="5.145876"><time>2026-05-02T17:37:56Z</time></trkpt>
<trkpt lat="50.591896" lon="5.145666"><time>2026-05-02T17:47:56Z</time></trkpt>
</trkseg></trk>
<trk>
<name>lbuma10</name>
<cmt>r</cmt>
<desc>Marneffe Chemin n°10 Rue Sainte-Barbe / Rue du Buck / Rue du Prale</desc>
<link href="https://chemins.be/marneffe/chemin/10"/><trkseg>
<trkpt lat="50.591896" lon="5.145666"><time>2026-05-02T17:47:56Z</time></trkpt>
<trkpt lat="50.589645" lon="5.145700"><time>2026-05-02T17:57:56Z</time></trkpt>
</trkseg></trk>
<trk>
<name>lbuma10</name>
<cmt>q</cmt>
<desc>Marneffe Chemin n°10 Rue Sainte-Barbe / Rue du Buck / Rue du Prale</desc>
<link href="https://chemins.be/marneffe/chemin/10"/><trkseg>
<trkpt lat="50.589645" lon="5.145700"><time>2026-05-02T17:57:56Z</time></trkpt>
<trkpt lat="50.589035" lon="5.145442"><time>2026-05-02T18:07:56Z</time></trkpt>
<trkpt lat="50.588464" lon="5.145479"><time>2026-05-02T18:17:56Z</time></trkpt>
<trkpt lat="50.586889" lon="5.145573"><time>2026-05-02T18:27:56Z</time></trkpt>
<trkpt lat="50.586364" lon="5.145269"><time>2026-05-02T18:37:56Z</time></trkpt>
<trkpt lat="50.586022" lon="5.145039"><time>2026-05-02T18:47:56Z</time></trkpt>
</trkseg></trk>
<trk>
<name>lbuma10</name>
<cmt>v</cmt>
<desc>Marneffe Chemin n°10 Rue Sainte-Barbe / Rue du Buck / Rue du Prale</desc>
<link href="https://chemins.be/marneffe/chemin/10"/><trkseg>
<trkpt lat="50.586022" lon="5.145039"><time>2026-05-02T18:47:56Z</time></trkpt>
<trkpt lat="50.585710" lon="5.145129"><time>2026-05-02T18:57:56Z</time></trkpt>
<trkpt lat="50.585488" lon="5.144820"><time>2026-05-02T19:07:56Z</time></trkpt>
</trkseg></trk>
<trk>
<name>lbuma10</name>
<cmt>r</cmt>
<desc>Marneffe Chemin n°10 Rue Sainte-Barbe / Rue du Buck / Rue du Prale</desc>
<link href="https://chemins.be/marneffe/chemin/10"/><trkseg>
<trkpt lat="50.585488" lon="5.144820"><time>2026-05-02T19:07:56Z</time></trkpt>
<trkpt lat="50.585805" lon="5.144614"><time>2026-05-02T19:17:56Z</time></trkpt>
<trkpt lat="50.584802" lon="5.142535"><time>2026-05-02T19:27:56Z</time></trkpt>
<trkpt lat="50.584213" lon="5.143407"><time>2026-05-02T19:37:56Z</time></trkpt>
<trkpt lat="50.583619" lon="5.142399"><time>2026-05-02T19:47:56Z</time></trkpt>
<trkpt lat="50.582720" lon="5.141659"><time>2026-05-02T19:57:56Z</time></trkpt>
<trkpt lat="50.581561" lon="5.140206"><time>2026-05-02T20:07:56Z</time></trkpt>
<trkpt lat="50.580802" lon="5.138681"><time>2026-05-02T20:17:56Z</time></trkpt>
<trkpt lat="50.579210" lon="5.134141"><time>2026-05-02T20:27:56Z</time></trkpt>
<trkpt lat="50.579362" lon="5.133179"><time>2026-05-02T20:37:56Z</time></trkpt>
<trkpt lat="50.579371" lon="5.132581"><time>2026-05-02T20:47:56Z</time></trkpt>
</trkseg>
</trk>
</gpx>